createdAt,value
2024-04-19T00:02:24.799Z,100451.50
2024-04-19T00:07:27.308Z,100437.03
2024-04-19T00:12:29.155Z,100426.50
2024-04-19T00:17:31.041Z,100428.00
2024-04-19T00:22:32.751Z,100422.66
2024-04-19T00:27:34.943Z,100414.75
2024-04-19T00:32:37.081Z,100405.53
2024-04-19T00:37:38.865Z,100402.53
2024-04-19T00:42:40.727Z,100406.88
2024-04-19T00:47:42.912Z,100394.97
2024-04-19T00:52:44.705Z,100393.47
2024-04-19T00:57:46.838Z,100383.03
2024-04-19T01:02:49.707Z,100368.81
2024-04-19T01:07:52.739Z,100356.75
2024-04-19T01:12:54.704Z,100355.03
2024-04-19T01:17:56.688Z,100346.84
2024-04-19T01:22:59.468Z,100334.94
2024-04-19T01:28:02.694Z,100322.53
2024-04-19T01:33:04.945Z,100314.66
2024-04-19T01:38:07.386Z,100316.66
2024-04-19T01:43:09.616Z,100304.09
2024-04-19T01:48:11.895Z,100294.88
2024-04-19T01:53:13.508Z,100298.22
2024-04-19T01:58:15.273Z,100296.88
2024-04-19T02:03:17.962Z,100287.34
2024-04-19T02:08:19.574Z,100283.47
2024-04-19T02:13:21.251Z,100278.63
2024-04-19T02:18:23.142Z,100263.22
2024-04-19T02:23:37.006Z,100254.81
2024-04-19T02:29:00.040Z,100244.28
2024-04-19T02:34:01.734Z,100238.59
2024-04-19T02:39:03.384Z,100220.81
2024-04-19T02:44:05.102Z,100206.75
2024-04-19T02:49:06.652Z,100197.38
2024-04-19T02:54:08.318Z,100212.28
2024-04-19T02:59:09.930Z,100222.00
2024-04-19T03:04:11.950Z,100224.00
2024-04-19T03:09:13.673Z,100188.28
2024-04-19T03:14:15.346Z,100197.81
2024-04-19T03:19:17.207Z,100197.97
2024-04-19T03:24:18.818Z,100188.81
2024-04-19T03:29:20.376Z,100183.59
2024-04-19T03:34:22.416Z,100174.53
2024-04-19T03:39:24.067Z,100168.72
2024-04-19T03:44:44.190Z,100162.88
2024-04-19T03:49:45.819Z,100159.69
2024-04-19T03:54:47.468Z,100154.16
2024-04-19T03:59:49.068Z,100155.47
2024-04-19T04:04:50.708Z,100149.97
2024-04-19T04:09:53.010Z,100133.53
2024-04-19T04:14:55.350Z,100146.41
2024-04-19T04:19:57.002Z,100136.69
2024-04-19T04:24:58.510Z,100126.91
2024-04-19T04:30:00.147Z,100117.53
2024-04-19T04:35:01.717Z,100117.38
2024-04-19T04:40:03.521Z,100110.53
2024-04-19T04:45:05.415Z,100110.03
2024-04-19T04:50:07.320Z,100084.78
2024-04-19T04:55:09.951Z,100079.13
2024-04-19T05:00:12.106Z,100077.94
2024-04-19T05:05:14.969Z,100070.88
2024-04-19T05:10:18.253Z,100057.97
2024-04-19T05:15:20.175Z,100049.63
2024-04-19T05:20:22.516Z,100040.06
2024-04-19T05:25:24.216Z,100026.03
2024-04-19T05:30:28.791Z,100017.66
2024-04-19T05:35:30.414Z,100002.63
2024-04-19T05:40:31.991Z,100007.78
2024-04-19T05:45:33.602Z,100002.81
2024-04-19T05:50:35.223Z,100001.81
2024-04-19T05:55:36.831Z,99990.25
2024-04-19T06:00:38.488Z,99976.38
2024-04-19T06:05:40.139Z,99967.72
2024-04-19T06:10:42.021Z,99962.38
2024-04-19T06:15:44.287Z,99953.53
2024-04-19T06:20:45.913Z,99948.50
2024-04-19T06:25:48.163Z,99940.97
2024-04-19T06:30:49.816Z,99934.66
2024-04-19T06:35:51.448Z,99926.09
2024-04-19T06:40:53.003Z,99925.75
2024-04-19T06:45:58.237Z,99918.75
2024-04-19T06:51:00.050Z,99913.38
2024-04-19T06:56:01.848Z,99904.38
2024-04-19T07:01:16.336Z,99895.00
2024-04-19T07:06:27.526Z,99885.81
2024-04-19T07:11:36.920Z,99872.28
2024-04-19T07:16:39.424Z,99860.75
2024-04-19T07:21:41.940Z,99850.06
2024-04-19T07:26:44.990Z,99843.22
2024-04-19T07:31:46.920Z,99822.66
2024-04-19T07:36:48.789Z,99810.44
2024-04-19T07:41:50.552Z,99804.44
2024-04-19T07:46:52.322Z,99798.09
2024-04-19T07:51:54.767Z,99798.41
2024-04-19T07:56:56.687Z,99781.88
2024-04-19T08:01:59.508Z,99763.47
2024-04-19T08:07:01.405Z,99754.75
2024-04-19T08:12:05.204Z,99746.53
2024-04-19T08:17:08.304Z,99745.84
2024-04-19T08:22:11.670Z,99734.69
2024-04-19T08:27:13.601Z,99734.16
2024-04-19T08:32:16.303Z,99714.63
2024-04-19T08:37:18.137Z,99717.31
2024-04-19T08:42:22.692Z,99707.47
2024-04-19T08:47:33.218Z,99708.34
2024-04-19T08:52:58.371Z,99692.28
2024-04-19T08:58:02.268Z,99671.47
2024-04-19T09:03:05.802Z,99666.56
2024-04-19T09:08:08.568Z,99660.88
2024-04-19T09:13:10.442Z,99656.03
2024-04-19T09:18:12.137Z,99650.63
2024-04-19T09:23:13.689Z,99649.47
2024-04-19T09:28:17.097Z,99643.44
2024-04-19T09:33:24.427Z,99633.19
2024-04-19T09:38:27.281Z,99621.56
2024-04-19T09:43:34.310Z,99608.41
2024-04-19T09:48:41.472Z,99610.59
2024-04-19T09:53:46.023Z,99599.16
2024-04-19T09:58:48.906Z,99595.13
2024-04-19T10:03:52.237Z,99586.44
2024-04-19T10:08:56.789Z,99574.34
2024-04-19T10:13:58.481Z,99572.75
2024-04-19T10:19:01.324Z,99567.59
2024-04-19T10:24:21.258Z,99556.88
2024-04-19T10:29:23.769Z,99548.38
2024-04-19T10:34:25.474Z,99536.28
2024-04-19T10:39:27.181Z,99537.13
2024-04-19T10:44:32.185Z,99521.28
2024-04-19T10:49:33.951Z,99514.63
2024-04-19T10:54:37.047Z,99508.19
2024-04-19T10:59:38.610Z,99499.22
2024-04-19T11:04:40.941Z,99483.63
2024-04-19T11:09:42.959Z,99480.75
2024-04-19T11:14:44.619Z,99476.16
2024-04-19T11:19:47.931Z,99475.38
2024-04-19T11:24:54.634Z,99459.59
2024-04-19T11:29:59.120Z,99455.25
2024-04-19T11:35:09.337Z,99441.28
2024-04-19T11:40:22.301Z,99432.69
2024-04-19T11:45:25.568Z,99425.53
2024-04-19T11:50:28.094Z,99414.94
2024-04-19T11:55:29.844Z,99409.31
2024-04-19T12:00:31.558Z,99409.31
2024-04-19T12:05:33.864Z,99415.59
2024-04-19T12:10:35.736Z,99409.13
2024-04-19T12:16:16.241Z,99405.03
2024-04-19T12:20:59.483Z,99388.97
2024-04-19T12:26:02.832Z,99383.25
2024-04-19T12:31:05.001Z,99370.75
2024-04-19T12:36:11.972Z,99363.22
2024-04-19T12:41:17.198Z,99350.84
2024-04-19T12:46:19.545Z,99337.84
2024-04-19T12:51:25.216Z,99326.75
2024-04-19T12:56:27.385Z,99328.72
2024-04-19T13:01:29.193Z,99321.28
2024-04-19T13:06:32.187Z,99329.25
2024-04-19T13:11:34.084Z,99327.94
2024-04-19T13:16:36.116Z,99352.16
2024-04-19T13:21:37.831Z,99368.69
2024-04-19T13:26:39.543Z,99363.25
2024-04-19T13:31:41.339Z,99356.50
2024-04-19T13:36:43.428Z,99356.84
2024-04-19T13:41:45.582Z,99358.00
2024-04-19T13:46:47.992Z,99372.53
2024-04-19T13:51:50.521Z,99397.66
2024-04-19T13:56:52.867Z,99402.00
2024-04-19T14:01:57.094Z,99397.16
2024-04-19T14:07:02.467Z,99382.28
2024-04-19T14:12:06.356Z,99375.75
2024-04-19T14:17:16.073Z,99373.44
2024-04-19T14:22:18.066Z,99355.41
2024-04-19T14:27:19.783Z,99349.91
2024-04-19T14:32:21.509Z,99352.59
2024-04-19T14:37:23.268Z,99344.66
2024-04-19T14:42:27.844Z,99330.91
2024-04-19T14:47:30.260Z,99323.91
2024-04-19T14:52:31.960Z,99320.50
2024-04-19T14:57:34.125Z,99311.56
2024-04-19T15:02:35.913Z,99322.53
2024-04-19T15:07:41.168Z,99312.50
2024-04-19T15:12:42.874Z,99325.09
2024-04-19T15:17:44.762Z,99340.41
2024-04-19T15:22:46.328Z,99353.81
2024-04-19T15:27:47.884Z,99337.81
2024-04-19T15:32:49.516Z,99340.56
2024-04-19T15:37:51.088Z,99339.38
2024-04-19T15:42:52.700Z,99338.84
2024-04-19T15:47:54.585Z,99353.34
2024-04-19T15:52:56.215Z,99347.53
2024-04-19T15:57:59.710Z,99344.38
2024-04-19T16:03:01.344Z,99320.25
2024-04-19T16:08:03.150Z,99324.41
2024-04-19T16:13:05.123Z,99332.03
2024-04-19T16:18:06.943Z,99337.44
2024-04-19T16:23:08.738Z,99342.41
2024-04-19T16:28:10.577Z,99357.03
2024-04-19T16:33:13.334Z,99369.91
2024-04-19T16:38:15.852Z,99374.94
2024-04-19T16:43:17.885Z,99377.22
2024-04-19T16:48:23.347Z,99384.41
2024-04-19T16:53:32.295Z,99393.16
2024-04-19T16:58:34.099Z,99386.47
2024-04-19T17:03:35.867Z,99409.00
2024-04-19T17:08:38.055Z,99394.56
2024-04-19T17:13:40.211Z,99393.09
2024-04-19T17:18:42.215Z,99410.38
2024-04-19T17:23:43.877Z,99403.22
2024-04-19T17:28:45.693Z,99424.97
2024-04-19T17:33:47.295Z,99429.09
2024-04-19T17:38:48.967Z,99442.66
2024-04-19T17:43:50.687Z,99439.75
2024-04-19T17:48:52.277Z,99469.09
2024-04-19T17:53:53.899Z,99470.97
2024-04-19T17:58:55.732Z,99482.06
2024-04-19T18:03:57.356Z,99510.28
2024-04-19T18:08:58.927Z,99517.06
2024-04-19T18:14:00.463Z,99514.09
2024-04-19T18:19:04.606Z,99532.63
2024-04-19T18:24:09.798Z,99540.00
2024-04-19T18:29:12.031Z,99545.75
2024-04-19T18:34:17.167Z,99546.06
2024-04-19T18:39:18.881Z,99551.81
2024-04-19T18:44:20.473Z,99558.81
2024-04-19T18:49:22.211Z,99563.47
2024-04-19T18:54:23.761Z,99563.47
2024-04-19T18:59:28.146Z,99559.66
2024-04-19T19:04:31.943Z,99564.66
2024-04-19T19:09:34.144Z,99553.84
2024-04-19T19:14:36.658Z,99560.88
2024-04-19T19:19:38.738Z,99573.63
2024-04-19T19:24:40.330Z,99579.09
2024-04-19T19:29:41.912Z,99575.94
2024-04-19T19:34:43.427Z,99588.41
2024-04-19T19:39:45.072Z,99590.81
2024-04-19T19:44:49.611Z,99604.84
2024-04-19T19:49:59.155Z,99596.72
2024-04-19T19:55:02.377Z,99604.03
2024-04-19T20:00:23.361Z,99613.28
2024-04-19T20:05:43.609Z,99604.69
2024-04-19T20:10:45.333Z,99606.78
2024-04-19T20:15:48.603Z,99622.41
2024-04-19T20:20:50.773Z,99617.81
2024-04-19T20:25:52.342Z,99616.03
2024-04-19T20:30:54.092Z,99633.34
2024-04-19T20:35:55.679Z,99654.22
2024-04-19T20:40:58.207Z,99657.06
2024-04-19T20:46:00.474Z,99660.56
2024-04-19T20:51:02.090Z,99668.69
2024-04-19T20:56:04.107Z,99666.94
2024-04-19T21:01:12.176Z,99669.72
2024-04-19T21:06:16.665Z,99680.16
2024-04-19T21:11:18.322Z,99701.31
2024-04-19T21:16:20.193Z,99693.28
2024-04-19T21:21:21.735Z,99705.53
2024-04-19T21:26:23.845Z,99717.91
2024-04-19T21:31:25.575Z,99715.06
2024-04-19T21:36:30.677Z,99710.72
2024-04-19T21:41:32.301Z,99717.63
2024-04-19T21:46:34.137Z,99710.41
2024-04-19T21:51:35.819Z,99723.16
2024-04-19T21:56:37.532Z,99722.50
2024-04-19T22:01:39.834Z,99720.97
2024-04-19T22:06:41.415Z,99719.09
2024-04-19T22:11:43.481Z,99730.13
2024-04-19T22:16:45.066Z,99740.47
2024-04-19T22:21:48.148Z,99754.53
2024-04-19T22:26:52.552Z,99764.19
2024-04-19T22:31:55.476Z,99774.53
2024-04-19T22:36:57.684Z,99778.78
2024-04-19T22:41:59.532Z,99784.59
2024-04-19T22:47:01.035Z,99797.47
2024-04-19T22:52:02.563Z,99794.44
2024-04-19T22:57:04.309Z,99811.00
2024-04-19T23:02:05.860Z,99811.66
2024-04-19T23:07:07.363Z,99807.16
2024-04-19T23:12:08.909Z,99821.59
2024-04-19T23:17:10.443Z,99822.41
2024-04-19T23:22:12.387Z,99834.28
2024-04-19T23:27:13.879Z,99835.59
2024-04-19T23:32:15.630Z,99826.06
2024-04-19T23:37:17.286Z,99827.44
2024-04-19T23:42:18.789Z,99823.94
2024-04-19T23:47:20.400Z,99822.81
2024-04-19T23:52:21.931Z,99833.88
2024-04-19T23:57:23.430Z,99824.38
